Time;durP1;ratioP1;P1;durP2;ratioP2;P2;SDS_P1;SDS_P2;PMS_P1;PMS_P2;Temp;Humidity;BMP_temperature;BMP_pressure;BME280_temperature;BME280_humidity;BME280_pressure;Samples;Min_cycle;Max_cycle;Signal;HPM_P1;HPM_P2
2021/11/27 00:00:33;;;;;;;0.47;0.43;;;2.00;99.90;;;;;;5035074;28;20021;-75
2021/11/27 00:03:00;;;;;;;0.30;0.30;;;2.00;99.90;;;;;;5035069;28;20025;-75
2021/11/27 00:05:28;;;;;;;0.30;0.30;;;2.10;99.90;;;;;;5033667;28;20133;-75
2021/11/27 00:07:54;;;;;;;0.75;0.75;;;2.10;99.90;;;;;;5033653;28;20057;-75
2021/11/27 00:10:23;;;;;;;0.32;0.32;;;2.20;99.90;;;;;;5034886;28;20388;-75
2021/11/27 00:12:49;;;;;;;0.30;0.30;;;2.10;99.90;;;;;;5034718;28;20091;-75
2021/11/27 00:15:16;;;;;;;0.30;0.30;;;2.10;99.90;;;;;;5035009;28;20053;-76
2021/11/27 00:17:41;;;;;;;0.30;0.30;;;2.20;99.90;;;;;;5033534;28;20104;-75
2021/11/27 00:20:11;;;;;;;0.40;0.40;;;2.30;99.90;;;;;;5033359;28;20474;-75
2021/11/27 00:22:38;;;;;;;0.30;0.30;;;2.30;99.90;;;;;;5034507;28;20037;-75
2021/11/27 00:25:05;;;;;;;0.30;0.30;;;2.20;99.90;;;;;;5034621;28;20481;-75
2021/11/27 00:27:32;;;;;;;0.28;0.28;;;2.30;99.90;;;;;;5033281;28;20036;-75
2021/11/27 00:29:58;;;;;;;0.30;0.30;;;2.40;99.90;;;;;;5033260;28;20033;-74
2021/11/27 00:32:24;;;;;;;0.20;0.20;;;2.20;99.90;;;;;;5033274;28;20397;-75
2021/11/27 00:34:50;;;;;;;1.27;1.27;;;2.10;99.90;;;;;;5033548;28;20030;-75
2021/11/27 00:37:17;;;;;;;0.40;0.40;;;2.10;99.90;;;;;;5034423;28;20534;-75
2021/11/27 00:39:43;;;;;;;0.32;0.32;;;2.10;99.90;;;;;;5033153;28;20022;-76
2021/11/27 00:42:09;;;;;;;0.30;0.30;;;2.20;99.90;;;;;;5033139;28;20370;-75
2021/11/27 00:44:34;;;;;;;2.58;2.35;;;2.30;99.90;;;;;;5032945;28;20195;-75
2021/11/27 00:47:00;;;;;;;0.30;0.30;;;2.30;99.90;;;;;;5033070;28;20409;-75
2021/11/27 00:49:26;;;;;;;0.30;0.30;;;2.30;99.90;;;;;;5032864;28;20036;-75
2021/11/27 00:51:52;;;;;;;0.30;0.30;;;2.30;99.90;;;;;;5016174;28;20036;-75
2021/11/27 00:54:21;;;;;;;0.30;0.30;;;2.30;99.90;;;;;;5034148;28;20022;-73
2021/11/27 00:56:48;;;;;;;1.38;0.93;;;2.20;99.90;;;;;;5034065;28;20013;-75
2021/11/27 00:59:15;;;;;;;0.30;0.30;;;2.30;99.90;;;;;;5032844;28;20021;-75
2021/11/27 01:01:41;;;;;;;0.32;0.32;;;2.40;99.90;;;;;;5032659;28;20029;-75
2021/11/27 01:04:07;;;;;;;0.20;0.20;;;2.30;99.90;;;;;;5033966;28;20477;-75
2021/11/27 01:06:33;;;;;;;0.38;0.38;;;2.40;99.90;;;;;;5033872;28;20030;-75
2021/11/27 01:09:04;;;;;;;0.25;0.25;;;2.40;99.90;;;;;;5033914;28;20503;-76
2021/11/27 01:11:34;;;;;;;0.30;0.30;;;2.30;99.90;;;;;;5032441;28;20080;-75
2021/11/27 01:14:17;;;;;;;0.40;0.40;;;2.50;99.90;;;;;;5033676;28;20032;-75
2021/11/27 01:16:48;;;;;;;0.30;0.30;;;2.50;99.90;;;;;;5032560;28;20030;-75
2021/11/27 01:19:13;;;;;;;0.35;0.35;;;2.50;99.90;;;;;;5033698;28;20018;-75
2021/11/27 01:21:46;;;;;;;0.30;0.30;;;2.50;99.90;;;;;;5033749;28;20052;-75
2021/11/27 01:24:15;;;;;;;0.30;0.30;;;2.60;99.90;;;;;;5033853;28;20018;-75
2021/11/27 01:26:42;;;;;;;3.65;3.28;;;2.70;99.90;;;;;;5033771;28;20030;-75
2021/11/27 01:29:08;;;;;;;1.17;0.50;;;2.70;99.90;;;;;;5033468;28;20029;-75
2021/11/27 01:31:35;;;;;;;0.40;0.40;;;2.50;99.90;;;;;;5032049;28;20600;-75
2021/11/27 01:34:02;;;;;;;0.30;0.30;;;2.30;99.90;;;;;;5033379;28;20481;-75
2021/11/27 01:36:27;;;;;;;0.30;0.30;;;2.40;99.90;;;;;;5032097;28;20084;-75
2021/11/27 01:38:53;;;;;;;0.38;0.38;;;2.60;99.90;;;;;;5033258;28;20025;-75
2021/11/27 01:41:19;;;;;;;0.30;0.30;;;2.50;99.90;;;;;;5033234;28;20472;-75
2021/11/27 01:43:45;;;;;;;0.30;0.30;;;2.60;99.90;;;;;;5015454;28;20481;-74
2021/11/27 01:46:12;;;;;;;0.35;0.35;;;2.60;99.90;;;;;;5031920;28;20021;-74
2021/11/27 01:48:41;;;;;;;0.47;0.47;;;2.60;99.90;;;;;;5033040;28;20028;-75
2021/11/27 01:51:10;;;;;;;0.30;0.30;;;2.50;99.90;;;;;;5031614;28;20030;-75
2021/11/27 01:53:40;;;;;;;0.30;0.30;;;2.50;99.90;;;;;;5032949;28;20029;-75
2021/11/27 01:56:10;;;;;;;0.30;0.30;;;2.50;99.90;;;;;;5031709;28;20021;-75
2021/11/27 01:58:36;;;;;;;0.30;0.30;;;2.70;99.90;;;;;;5032856;28;20021;-75
2021/11/27 02:01:16;;;;;;;0.30;0.30;;;2.70;99.90;;;;;;5031800;28;20033;-75
2021/11/27 02:03:44;;;;;;;0.20;0.20;;;2.60;99.90;;;;;;5032903;28;20033;-75
2021/11/27 02:06:13;;;;;;;0.30;0.30;;;2.70;99.90;;;;;;5031375;28;20094;-74
2021/11/27 02:08:42;;;;;;;0.30;0.30;;;2.80;99.90;;;;;;5031436;28;20025;-75
2021/11/27 02:11:11;;;;;;;0.30;0.30;;;2.80;99.90;;;;;;5032556;28;20029;-75
2021/11/27 02:13:36;;;;;;;0.30;0.30;;;3.00;99.90;;;;;;5032641;28;20030;-75
2021/11/27 02:16:02;;;;;;;0.32;0.32;;;3.10;99.90;;;;;;5031283;28;20459;-75
2021/11/27 02:18:28;;;;;;;0.30;0.30;;;3.00;99.90;;;;;;5032525;28;20021;-75
2021/11/27 02:20:57;;;;;;;0.40;0.40;;;3.00;99.90;;;;;;5031059;28;20034;-74
2021/11/27 02:23:24;;;;;;;0.30;0.30;;;3.10;99.90;;;;;;5032567;28;20121;-76
2021/11/27 02:25:50;;;;;;;0.30;0.30;;;3.10;99.90;;;;;;5031138;28;20022;-75
2021/11/27 02:28:16;;;;;;;0.30;0.30;;;3.10;99.90;;;;;;5032448;28;20033;-75
2021/11/27 02:30:42;;;;;;;1.17;1.05;;;3.10;99.90;;;;;;5032167;28;20362;-75
2021/11/27 02:33:08;;;;;;;0.30;0.30;;;3.00;99.90;;;;;;5032382;28;20022;-75
2021/11/27 02:35:34;;;;;;;0.30;0.30;;;3.10;99.90;;;;;;5032260;28;20040;-75
2021/11/27 02:37:59;;;;;;;0.30;0.30;;;3.00;99.90;;;;;;5032258;28;20518;-75
2021/11/27 02:40:26;;;;;;;0.30;0.30;;;3.10;99.90;;;;;;5014453;28;20023;-75
2021/11/27 02:42:52;;;;;;;0.30;0.30;;;3.00;99.90;;;;;;5030899;28;20033;-75
2021/11/27 02:45:19;;;;;;;0.30;0.30;;;3.10;99.90;;;;;;5032127;28;20025;-75
2021/11/27 02:47:45;;;;;;;0.30;0.30;;;3.00;99.90;;;;;;5030837;28;20500;-75
2021/11/27 02:50:14;;;;;;;0.63;0.63;;;3.00;99.90;;;;;;5014235;28;20025;-74
2021/11/27 02:52:41;;;;;;;0.30;0.30;;;3.00;99.90;;;;;;5031988;28;20209;-75
2021/11/27 02:55:09;;;;;;;0.30;0.30;;;3.00;99.90;;;;;;5030764;28;20026;-75
2021/11/27 02:57:35;;;;;;;0.30;0.30;;;2.70;99.90;;;;;;5031777;28;20021;-74
2021/11/27 03:00:12;;;;;;;0.30;0.30;;;2.80;99.90;;;;;;5031584;28;20151;-75
2021/11/27 03:02:38;;;;;;;0.30;0.30;;;2.80;99.90;;;;;;5031986;28;20036;-75
2021/11/27 03:05:05;;;;;;;0.30;0.30;;;2.80;99.90;;;;;;5030605;28;20022;-75
2021/11/27 03:07:31;;;;;;;0.28;0.28;;;2.90;99.90;;;;;;5031939;28;20033;-75
2021/11/27 03:09:57;;;;;;;0.30;0.30;;;2.80;99.90;;;;;;5031870;28;20029;-75
2021/11/27 03:12:24;;;;;;;0.20;0.20;;;2.80;99.90;;;;;;5031812;28;20036;-76
2021/11/27 03:14:50;;;;;;;0.30;0.30;;;2.70;99.90;;;;;;5031705;28;20402;-75
2021/11/27 03:17:16;;;;;;;0.30;0.30;;;2.50;99.90;;;;;;5031803;28;20104;-75
2021/11/27 03:19:43;;;;;;;0.30;0.30;;;2.50;99.90;;;;;;5031676;28;20022;-75
2021/11/27 03:22:11;;;;;;;0.30;0.30;;;2.40;99.90;;;;;;5031812;28;20366;-75
2021/11/27 03:24:37;;;;;;;0.20;0.20;;;2.50;99.90;;;;;;5031746;28;20108;-75
2021/11/27 03:27:04;;;;;;;0.30;0.30;;;2.50;99.90;;;;;;5030514;28;20477;-75
2021/11/27 03:29:31;;;;;;;0.30;0.30;;;2.50;99.90;;;;;;5031604;28;20033;-75
2021/11/27 03:32:04;;;;;;;0.30;0.30;;;2.50;99.90;;;;;;5030249;28;20029;-75
2021/11/27 03:34:30;;;;;;;0.65;0.65;;;2.60;99.90;;;;;;5031565;28;20087;-74
2021/11/27 03:36:56;;;;;;;0.30;0.30;;;2.50;99.90;;;;;;5030304;28;20022;-75
2021/11/27 03:39:22;;;;;;;0.30;0.30;;;2.50;99.90;;;;;;5030421;28;20021;-74
2021/11/27 03:41:47;;;;;;;0.35;0.35;;;2.60;99.90;;;;;;5031521;28;20477;-75
2021/11/27 03:44:13;;;;;;;0.30;0.30;;;2.70;99.90;;;;;;5030431;28;20038;-75
2021/11/27 03:46:39;;;;;;;0.30;0.30;;;2.70;99.90;;;;;;5031593;28;20104;-75
2021/11/27 03:49:06;;;;;;;0.30;0.30;;;2.70;99.90;;;;;;5013783;28;20378;-75
2021/11/27 03:51:32;;;;;;;0.47;0.47;;;2.80;99.90;;;;;;5031296;28;20026;-75
2021/11/27 03:53:58;;;;;;;0.30;0.30;;;2.80;99.90;;;;;;5031478;28;20099;-75
2021/11/27 03:56:26;;;;;;;0.30;0.30;;;2.80;99.90;;;;;;5031485;28;20208;-75
2021/11/27 03:58:55;;;;;;;0.30;0.30;;;2.70;99.90;;;;;;5031440;28;20025;-73
2021/11/27 04:01:22;;;;;;;0.30;0.30;;;2.80;99.90;;;;;;5031278;28;20028;-75
2021/11/27 04:03:49;;;;;;;0.30;0.30;;;2.80;99.90;;;;;;5031301;28;20091;-75
2021/11/27 04:06:17;;;;;;;0.30;0.30;;;2.70;99.90;;;;;;5031300;28;20485;-75
2021/11/27 04:08:43;;;;;;;0.30;0.30;;;2.80;99.90;;;;;;5030132;28;20075;-75
2021/11/27 04:11:08;;;;;;;0.30;0.30;;;2.70;99.90;;;;;;5031853;28;20061;-74
2021/11/27 04:13:35;;;;;;;0.40;0.40;;;2.80;99.90;;;;;;5033599;28;20397;-75
2021/11/27 04:16:00;;;;;;;0.40;0.40;;;2.80;99.90;;;;;;5034792;28;20330;-74
2021/11/27 04:18:26;;;;;;;0.30;0.30;;;2.80;99.90;;;;;;5034790;28;20033;-75
2021/11/27 04:20:53;;;;;;;0.38;0.38;;;2.70;99.90;;;;;;5034717;28;20096;-75
2021/11/27 04:23:19;;;;;;;0.30;0.30;;;2.70;99.90;;;;;;5033430;28;20032;-75
2021/11/27 04:25:45;;;;;;;0.30;0.30;;;2.80;99.90;;;;;;5033360;28;20026;-75
2021/11/27 04:28:11;;;;;;;0.50;0.50;;;2.70;99.90;;;;;;5033439;28;20048;-75
2021/11/27 04:30:38;;;;;;;0.30;0.30;;;2.50;99.90;;;;;;5033232;28;20025;-74
2021/11/27 04:33:05;;;;;;;0.30;0.30;;;2.70;99.90;;;;;;5034563;28;20056;-75
2021/11/27 04:35:33;;;;;;;0.30;0.30;;;2.50;99.90;;;;;;5034491;28;20032;-75
2021/11/27 04:37:59;;;;;;;0.30;0.30;;;2.60;99.90;;;;;;5033191;28;20025;-75
2021/11/27 04:40:25;;;;;;;0.38;0.38;;;2.60;99.90;;;;;;5016553;28;20026;-75
2021/11/27 04:42:51;;;;;;;0.30;0.30;;;2.60;99.90;;;;;;5034395;28;20025;-74
2021/11/27 04:45:17;;;;;;;0.93;0.93;;;2.60;99.90;;;;;;5016463;28;20755;-74
2021/11/27 04:47:44;;;;;;;0.30;0.30;;;2.60;99.90;;;;;;5034308;28;20037;-75
2021/11/27 04:50:11;;;;;;;0.40;0.40;;;2.50;99.90;;;;;;5016446;28;20038;-74
2021/11/27 04:52:38;;;;;;;0.50;0.50;;;2.40;99.90;;;;;;5032796;28;20393;-75
2021/11/27 04:55:06;;;;;;;0.73;0.55;;;2.50;99.90;;;;;;5032970;28;20026;-74
2021/11/27 04:57:32;;;;;;;0.30;0.30;;;2.40;99.90;;;;;;5016362;28;20025;-74
2021/11/27 04:59:58;;;;;;;0.38;0.38;;;2.40;99.90;;;;;;5032761;28;20033;-75
2021/11/27 05:02:24;;;;;;;0.40;0.40;;;2.40;99.90;;;;;;5034004;28;20083;-75
2021/11/27 05:04:50;;;;;;;0.30;0.30;;;2.50;99.90;;;;;;5033989;28;20021;-75
2021/11/27 05:07:16;;;;;;;0.50;0.50;;;2.50;99.90;;;;;;5033980;28;20111;-76
2021/11/27 05:09:41;;;;;;;0.40;0.40;;;2.50;99.90;;;;;;5033754;28;20151;-75
2021/11/27 05:12:07;;;;;;;0.30;0.30;;;2.50;99.90;;;;;;5033776;28;20650;-75
2021/11/27 05:14:33;;;;;;;1.08;1.05;;;2.50;99.90;;;;;;5058819;23;20095;-72
2021/11/27 05:16:59;;;;;;;0.30;0.30;;;2.50;99.90;;;;;;5053296;28;20435;-72
2021/11/27 05:19:25;;;;;;;0.30;0.30;;;2.50;99.90;;;;;;5052510;28;20052;-71
2021/11/27 05:21:50;;;;;;;0.30;0.30;;;2.60;99.90;;;;;;5051822;28;20024;-72
2021/11/27 05:24:17;;;;;;;0.30;0.30;;;2.60;99.90;;;;;;5052155;28;20036;-72
2021/11/27 05:26:42;;;;;;;0.20;0.20;;;2.70;99.90;;;;;;5052138;28;20063;-72
2021/11/27 05:29:08;;;;;;;0.52;0.52;;;2.80;99.90;;;;;;5053463;28;20056;-71
2021/11/27 05:31:34;;;;;;;0.20;0.20;;;3.00;99.90;;;;;;5052109;28;20021;-71
2021/11/27 05:36:35;;;;;;;0.30;0.30;;;2.90;99.90;;;;;;5053094;28;20079;-72
2021/11/27 05:39:03;;;;;;;0.28;0.28;;;3.00;99.90;;;;;;5051826;28;20028;-71
2021/11/27 05:41:29;;;;;;;0.30;0.30;;;3.00;99.90;;;;;;5053115;28;20036;-71
2021/11/27 05:43:55;;;;;;;0.40;0.40;;;3.10;99.90;;;;;;5053193;28;20025;-72
2021/11/27 05:46:21;;;;;;;0.28;0.28;;;3.20;99.90;;;;;;5051605;28;20493;-72
2021/11/27 05:48:47;;;;;;;0.30;0.30;;;3.20;99.90;;;;;;5052120;28;20033;-72
2021/11/27 05:51:13;;;;;;;0.20;0.20;;;3.30;99.90;;;;;;5051563;28;20556;-72
2021/11/27 05:53:40;;;;;;;0.30;0.30;;;3.30;99.90;;;;;;5052985;28;20029;-72
2021/11/27 05:56:07;;;;;;;2.17;1.48;;;3.40;99.90;;;;;;5051401;28;20115;-72
2021/11/27 05:58:33;;;;;;;1.45;1.10;;;3.40;99.90;;;;;;5034945;28;20428;-72
2021/11/27 06:01:03;;;;;;;0.30;0.30;;;3.30;99.90;;;;;;5053061;28;20120;-72
2021/11/27 06:03:33;;;;;;;0.30;0.30;;;3.30;99.90;;;;;;5051596;28;20028;-72
2021/11/27 06:06:00;;;;;;;0.30;0.30;;;3.20;99.90;;;;;;5051366;28;20017;-72
2021/11/27 06:08:26;;;;;;;0.30;0.30;;;3.10;99.90;;;;;;5052708;28;20092;-72
2021/11/27 06:10:52;;;;;;;0.30;0.30;;;3.20;99.90;;;;;;5051184;28;20052;-72
2021/11/27 06:13:18;;;;;;;0.30;0.30;;;3.20;99.90;;;;;;5051345;28;20025;-72
2021/11/27 06:15:44;;;;;;;0.40;0.40;;;3.20;99.90;;;;;;5051074;28;20120;-72
2021/11/27 06:18:10;;;;;;;0.30;0.30;;;3.20;99.90;;;;;;5052326;28;20056;-71
2021/11/27 06:20:35;;;;;;;0.30;0.30;;;3.10;99.90;;;;;;5034579;28;20025;-71
2021/11/27 06:23:02;;;;;;;8.13;7.43;;;3.10;99.90;;;;;;5052507;28;20017;-72
2021/11/27 06:25:27;;;;;;;0.28;0.28;;;3.20;99.90;;;;;;5052306;28;20021;-72
2021/11/27 06:27:54;;;;;;;0.35;0.35;;;3.20;99.90;;;;;;5052315;28;20021;-72
2021/11/27 06:30:21;;;;;;;0.32;0.32;;;3.20;99.90;;;;;;5052659;28;20143;-72
2021/11/27 06:32:47;;;;;;;0.50;0.50;;;3.20;99.90;;;;;;5050218;28;20025;-72
2021/11/27 06:35:13;;;;;;;0.30;0.30;;;3.10;99.90;;;;;;5034239;28;20116;-72
2021/11/27 06:37:40;;;;;;;1.00;1.00;;;3.10;99.90;;;;;;5052223;28;20026;-72
2021/11/27 06:40:07;;;;;;;0.55;0.55;;;3.20;99.90;;;;;;5052152;28;20013;-72
2021/11/27 06:42:33;;;;;;;0.30;0.30;;;3.20;99.90;;;;;;5050956;28;20442;-72
2021/11/27 06:44:58;;;;;;;0.30;0.30;;;3.30;99.90;;;;;;5050555;28;20116;-72
2021/11/27 06:47:24;;;;;;;0.60;0.60;;;3.20;99.90;;;;;;5050669;28;20029;-72
2021/11/27 06:49:51;;;;;;;0.30;0.30;;;3.20;99.90;;;;;;5050766;28;20025;-71
2021/11/27 06:52:18;;;;;;;1.25;0.93;;;3.20;99.90;;;;;;5050698;28;20385;-72
2021/11/27 06:54:45;;;;;;;0.30;0.30;;;3.30;99.90;;;;;;5034208;28;20128;-71
2021/11/27 06:57:11;;;;;;;0.30;0.30;;;3.30;99.90;;;;;;5051906;28;20503;-72
2021/11/27 06:59:39;;;;;;;0.30;0.30;;;3.40;99.90;;;;;;5051763;28;20027;-72
2021/11/27 07:02:05;;;;;;;0.85;0.85;;;3.40;99.90;;;;;;5050564;28;20025;-72
2021/11/27 07:04:31;;;;;;;0.30;0.30;;;3.40;99.90;;;;;;5051604;28;20036;-72
2021/11/27 07:06:57;;;;;;;0.30;0.30;;;3.30;99.90;;;;;;5051830;28;20079;-72
2021/11/27 07:09:23;;;;;;;0.30;0.30;;;3.30;99.90;;;;;;5051726;28;20097;-72
2021/11/27 07:11:50;;;;;;;0.30;0.30;;;3.40;99.90;;;;;;5051614;28;20434;-73
2021/11/27 07:14:15;;;;;;;0.30;0.30;;;3.50;99.90;;;;;;5050192;28;20021;-72
2021/11/27 07:16:41;;;;;;;0.28;0.28;;;3.60;99.90;;;;;;5051508;28;20029;-72
2021/11/27 07:19:07;;;;;;;0.40;0.40;;;3.70;99.90;;;;;;5051815;28;20028;-72
2021/11/27 07:21:33;;;;;;;0.30;0.30;;;3.60;99.90;;;;;;5050438;28;20515;-71
2021/11/27 07:23:59;;;;;;;1.13;1.13;;;3.70;99.90;;;;;;5050536;28;20029;-72
2021/11/27 07:26:25;;;;;;;0.20;0.20;;;3.70;99.90;;;;;;5051456;28;20029;-72
2021/11/27 07:28:52;;;;;;;0.30;0.30;;;3.60;99.90;;;;;;5056409;28;20477;-72
2021/11/27 07:31:18;;;;;;;2.00;1.90;;;3.60;99.90;;;;;;5056048;28;20029;-73
2021/11/27 07:33:44;;;;;;;3.90;3.70;;;3.50;99.90;;;;;;5051307;28;20025;-72
2021/11/27 07:36:10;;;;;;;0.30;0.30;;;3.40;99.90;;;;;;5049937;28;20025;-71
2021/11/27 07:38:36;;;;;;;0.50;0.50;;;3.30;99.90;;;;;;5051485;28;20024;-72
2021/11/27 07:41:04;;;;;;;0.57;0.57;;;3.50;99.90;;;;;;5051164;28;20021;-72
2021/11/27 07:43:33;;;;;;;0.35;0.35;;;3.60;99.90;;;;;;5051400;28;20033;-72
2021/11/27 07:45:59;;;;;;;0.30;0.30;;;3.60;99.90;;;;;;5064331;28;20115;-72
2021/11/27 07:48:31;;;;;;;0.30;0.30;;;3.60;99.90;;;;;;5075278;28;20063;-72
2021/11/27 07:51:00;;;;;;;0.65;0.65;;;3.60;99.90;;;;;;5059750;28;20014;-72
2021/11/27 07:53:26;;;;;;;0.30;0.30;;;3.40;99.90;;;;;;5069133;28;20055;-72
2021/11/27 07:55:52;;;;;;;0.30;0.30;;;3.50;99.90;;;;;;5058718;28;20017;-72
2021/11/27 07:58:18;;;;;;;0.20;0.20;;;3.60;99.90;;;;;;5056096;28;20021;-72
2021/11/27 08:00:44;;;;;;;0.30;0.30;;;3.60;99.90;;;;;;5074955;28;20029;-71
2021/11/27 08:03:10;;;;;;;0.20;0.20;;;3.70;99.90;;;;;;5063039;28;20025;-71
2021/11/27 08:05:36;;;;;;;0.85;0.50;;;3.70;99.90;;;;;;5054547;28;20033;-72
2021/11/27 08:08:01;;;;;;;0.20;0.20;;;3.70;99.90;;;;;;5064267;28;20575;-72
2021/11/27 08:10:27;;;;;;;0.80;0.75;;;3.60;99.90;;;;;;5074261;28;20032;-72
2021/11/27 08:12:53;;;;;;;0.25;0.25;;;3.60;99.90;;;;;;5068390;28;20017;-72
2021/11/27 08:15:19;;;;;;;0.30;0.30;;;3.40;99.90;;;;;;5065569;28;20041;-72
2021/11/27 08:17:44;;;;;;;0.30;0.30;;;3.50;99.90;;;;;;5062289;28;20021;-72
2021/11/27 08:20:11;;;;;;;0.40;0.40;;;3.70;99.90;;;;;;5054627;28;20021;-71
2021/11/27 08:22:38;;;;;;;0.30;0.30;;;3.80;99.90;;;;;;5071180;28;20031;-72
2021/11/27 08:25:05;;;;;;;0.30;0.30;;;4.00;99.90;;;;;;5045417;28;20033;-72
2021/11/27 08:27:30;;;;;;;0.30;0.30;;;4.10;99.90;;;;;;5054292;28;20025;-72
2021/11/27 08:29:57;;;;;;;0.60;0.60;;;4.10;99.90;;;;;;5060889;28;20125;-72
2021/11/27 08:32:23;;;;;;;0.50;0.50;;;4.00;99.90;;;;;;5063004;28;20029;-72
2021/11/27 08:34:50;;;;;;;0.30;0.30;;;3.90;99.90;;;;;;5052871;28;20032;-72
2021/11/27 08:37:15;;;;;;;0.25;0.25;;;3.90;99.90;;;;;;5017998;28;20018;-72
2021/11/27 08:39:41;;;;;;;0.73;0.73;;;3.90;99.90;;;;;;5031928;28;20025;-72
2021/11/27 08:42:07;;;;;;;0.20;0.20;;;3.90;99.90;;;;;;5045243;28;20021;-72
2021/11/27 08:44:33;;;;;;;0.40;0.40;;;3.90;99.90;;;;;;5072648;28;20532;-72
2021/11/27 08:46:59;;;;;;;0.30;0.30;;;3.90;99.90;;;;;;5058551;28;20028;-72
2021/11/27 08:49:25;;;;;;;0.35;0.35;;;3.60;99.90;;;;;;5053877;28;20452;-72
2021/11/27 08:51:51;;;;;;;0.50;0.50;;;3.60;99.90;;;;;;5052510;28;20415;-72
2021/11/27 08:54:17;;;;;;;0.60;0.60;;;3.60;99.90;;;;;;5053744;28;20104;-71
2021/11/27 08:56:43;;;;;;;1.85;1.63;;;3.60;99.90;;;;;;5052867;28;20078;-72
2021/11/27 08:59:10;;;;;;;0.30;0.30;;;3.50;99.90;;;;;;5061486;28;20074;-71
2021/11/27 09:01:35;;;;;;;0.35;0.35;;;3.60;99.90;;;;;;5073782;28;20024;-72
2021/11/27 09:04:02;;;;;;;0.35;0.35;;;3.70;99.90;;;;;;5073556;28;20024;-72
2021/11/27 09:06:28;;;;;;;0.30;0.30;;;3.70;99.90;;;;;;5052977;28;20021;-72
2021/11/27 09:08:54;;;;;;;1.48;1.38;;;3.80;99.90;;;;;;5050234;28;20021;-71
2021/11/27 09:11:24;;;;;;;0.20;0.20;;;3.90;99.90;;;;;;5059209;28;20056;-73
2021/11/27 09:13:51;;;;;;;0.52;0.52;;;3.90;99.90;;;;;;5053340;28;20033;-73
2021/11/27 09:16:17;;;;;;;0.30;0.30;;;3.80;99.90;;;;;;5055677;28;20021;-73
2021/11/27 09:18:44;;;;;;;0.30;0.30;;;3.80;99.90;;;;;;5051975;28;20033;-72
2021/11/27 09:21:10;;;;;;;0.50;0.50;;;3.80;99.90;;;;;;5052230;28;20129;-72
2021/11/27 09:23:35;;;;;;;0.25;0.25;;;3.70;99.90;;;;;;5053833;28;20055;-71
2021/11/27 09:26:01;;;;;;;0.30;0.30;;;3.60;99.90;;;;;;5051466;28;20021;-72
2021/11/27 09:28:27;;;;;;;0.20;0.20;;;3.70;99.90;;;;;;5052367;28;20021;-72
2021/11/27 09:30:53;;;;;;;0.45;0.45;;;3.70;99.90;;;;;;5053529;28;20053;-73
2021/11/27 09:33:19;;;;;;;0.45;0.40;;;3.60;99.90;;;;;;5051805;28;20045;-72
2021/11/27 09:35:58;;;;;;;0.30;0.30;;;3.70;99.90;;;;;;5035318;28;20017;-72
2021/11/27 09:38:24;;;;;;;0.30;0.30;;;3.60;99.90;;;;;;5051774;28;20032;-72
2021/11/27 09:40:54;;;;;;;0.77;0.73;;;3.60;99.90;;;;;;5051584;28;20017;-72
2021/11/27 09:43:20;;;;;;;0.60;0.60;;;3.70;99.90;;;;;;5052125;28;20412;-73
2021/11/27 09:45:47;;;;;;;2.42;0.77;;;3.70;99.90;;;;;;5034945;28;20397;-71
2021/11/27 09:48:14;;;;;;;0.30;0.30;;;3.60;99.90;;;;;;5051489;28;20033;-71
2021/11/27 09:50:40;;;;;;;0.38;0.38;;;3.50;99.90;;;;;;5051499;28;20108;-71
2021/11/27 09:53:06;;;;;;;0.30;0.30;;;3.70;99.90;;;;;;5052830;28;20496;-71
2021/11/27 09:55:32;;;;;;;0.30;0.30;;;3.90;99.90;;;;;;5051281;28;20491;-71
2021/11/27 09:57:58;;;;;;;0.50;0.50;;;3.80;99.90;;;;;;5052618;28;20025;-71
2021/11/27 10:00:24;;;;;;;0.20;0.20;;;3.90;99.90;;;;;;5052665;28;20021;-72
2021/11/27 10:02:55;;;;;;;2.60;0.93;;;4.00;99.90;;;;;;5034663;28;20048;-72
2021/11/27 10:05:22;;;;;;;2.42;2.22;;;4.00;99.90;;;;;;5051256;28;20033;-72
2021/11/27 10:07:50;;;;;;;0.40;0.40;;;3.90;99.90;;;;;;5050365;28;20033;-72
2021/11/27 10:10:18;;;;;;;0.43;0.25;;;3.70;99.90;;;;;;5051812;28;20056;-72
2021/11/27 10:12:44;;;;;;;1.25;0.75;;;3.60;99.90;;;;;;5065668;28;20499;-72
2021/11/27 10:15:11;;;;;;;0.30;0.30;;;3.70;99.90;;;;;;5059972;28;20032;-72
2021/11/27 10:17:39;;;;;;;1.65;1.00;;;3.70;99.90;;;;;;5070945;28;20031;-72
2021/11/27 10:20:06;;;;;;;0.20;0.20;;;3.80;99.90;;;;;;5070676;28;20023;-71
2021/11/27 10:22:38;;;;;;;0.20;0.20;;;3.60;99.90;;;;;;5070557;28;20396;-73
2021/11/27 10:25:24;;;;;;;0.65;0.65;;;3.70;99.90;;;;;;5070329;28;20055;-72
2021/11/27 10:27:52;;;;;;;0.40;0.40;;;3.70;99.90;;;;;;5070981;28;20047;-73
2021/11/27 10:30:17;;;;;;;1.65;1.58;;;3.70;99.90;;;;;;5070246;28;20503;-73
2021/11/27 10:32:46;;;;;;;0.55;0.55;;;3.90;99.90;;;;;;5053911;28;20024;-72
2021/11/27 10:35:15;;;;;;;0.20;0.20;;;4.00;99.90;;;;;;5070635;28;20044;-72
2021/11/27 10:37:50;;;;;;;0.50;0.50;;;3.90;99.90;;;;;;5072325;28;20021;-71
2021/11/27 10:40:21;;;;;;;0.30;0.30;;;3.80;99.90;;;;;;5071955;28;20104;-73
2021/11/27 10:42:53;;;;;;;0.30;0.30;;;3.90;99.90;;;;;;5070546;28;20495;-73
2021/11/27 10:45:26;;;;;;;1.65;0.80;;;4.00;99.90;;;;;;5070671;28;20048;-73
2021/11/27 10:48:32;;;;;;;0.20;0.20;;;4.00;99.90;;;;;;5070605;28;20025;-72
2021/11/27 10:51:00;;;;;;;0.20;0.20;;;4.00;99.90;;;;;;5068841;28;20105;-72
2021/11/27 10:53:27;;;;;;;1.88;0.70;;;4.00;99.90;;;;;;5070785;28;20047;-72
2021/11/27 10:56:02;;;;;;;0.30;0.30;;;4.00;99.90;;;;;;5071472;28;20553;-73
2021/11/27 10:58:28;;;;;;;0.30;0.30;;;3.90;99.90;;;;;;5071855;28;20024;-71
2021/11/27 11:00:54;;;;;;;3.00;2.72;;;3.90;99.90;;;;;;5070367;28;20032;-73
2021/11/27 11:03:33;;;;;;;0.22;0.22;;;4.00;99.90;;;;;;5070346;28;20031;-73
2021/11/27 11:06:02;;;;;;;0.20;0.20;;;4.10;99.90;;;;;;5053713;28;20456;-73
2021/11/27 11:08:32;;;;;;;1.63;1.52;;;4.00;99.90;;;;;;5070377;28;20027;-73
2021/11/27 11:10:57;;;;;;;0.20;0.20;;;4.10;99.90;;;;;;5070091;28;20484;-73
2021/11/27 11:13:31;;;;;;;0.20;0.20;;;4.10;99.90;;;;;;5070492;28;20024;-73
2021/11/27 11:15:56;;;;;;;0.30;0.30;;;4.20;99.90;;;;;;5071580;28;20478;-72
2021/11/27 11:18:27;;;;;;;14.10;12.90;;;4.20;99.90;;;;;;5071707;28;20020;-72
2021/11/27 11:21:00;;;;;;;0.20;0.20;;;4.40;99.90;;;;;;5056983;28;20025;-72
2021/11/27 11:23:33;;;;;;;0.28;0.28;;;4.40;99.90;;;;;;5074545;28;20035;-73
2021/11/27 11:26:24;;;;;;;0.17;0.17;;;4.40;99.90;;;;;;5074198;28;20028;-72
2021/11/27 11:28:55;;;;;;;1.23;1.23;;;4.40;99.90;;;;;;5074187;28;20029;-73
2021/11/27 11:31:23;;;;;;;;;;;4.40;99.90;;;;;;5075794;28;20077;-72
2021/11/27 11:34:00;;;;;;;0.30;0.30;;;4.50;99.90;;;;;;5057303;28;19914;-71
2021/11/27 11:36:27;;;;;;;0.20;0.20;;;4.40;99.90;;;;;;5075413;28;20546;-73
2021/11/27 11:39:00;;;;;;;0.20;0.20;;;4.40;99.90;;;;;;5075408;28;20021;-72
2021/11/27 11:41:29;;;;;;;0.20;0.20;;;4.40;99.90;;;;;;5074093;28;20222;-73
2021/11/27 11:43:55;;;;;;;0.30;0.30;;;4.40;99.90;;;;;;5075101;28;20129;-73
2021/11/27 11:46:25;;;;;;;0.20;0.20;;;4.20;99.90;;;;;;5074075;28;20364;-72
2021/11/27 11:48:53;;;;;;;0.25;0.25;;;4.30;99.90;;;;;;5075694;28;20036;-73
2021/11/27 11:51:42;;;;;;;0.20;0.20;;;4.30;99.90;;;;;;5057189;28;20507;-72
2021/11/27 11:54:10;;;;;;;0.65;0.65;;;4.20;99.90;;;;;;5075702;28;20059;-73
2021/11/27 11:56:41;;;;;;;0.20;0.20;;;4.20;99.90;;;;;;5056705;28;20017;-72
2021/11/27 11:59:18;;;;;;;1.70;1.60;;;4.20;99.90;;;;;;5057565;28;20622;-73
2021/11/27 12:02:14;;;;;;;0.82;0.82;;;4.10;99.90;;;;;;5075448;28;20028;-73
2021/11/27 12:04:58;;;;;;;1.30;1.30;;;4.10;99.90;;;;;;5074150;28;20489;-73
2021/11/27 12:07:50;;;;;;;0.20;0.20;;;4.20;99.90;;;;;;5057097;28;20078;-72
2021/11/27 12:10:25;;;;;;;0.20;0.20;;;4.30;99.90;;;;;;5073643;28;20028;-73
2021/11/27 12:13:06;;;;;;;0.20;0.20;;;4.30;99.90;;;;;;5073450;28;20590;-73
2021/11/27 12:15:39;;;;;;;5.15;2.42;;;4.20;99.90;;;;;;5056810;28;20028;-73
2021/11/27 12:18:16;;;;;;;0.40;0.40;;;4.10;99.90;;;;;;5074906;28;20547;-73
2021/11/27 12:20:56;;;;;;;0.28;0.28;;;3.80;99.90;;;;;;5073530;28;20027;-73
2021/11/27 12:28:40;;;;;;;0.60;0.60;;;3.90;99.90;;;;;;5074593;28;20372;-73
2021/11/27 12:31:09;;;;;;;0.20;0.20;;;4.10;99.90;;;;;;5071848;28;20024;-72
2021/11/27 12:33:51;;;;;;;0.20;0.20;;;4.10;99.90;;;;;;5073296;28;20028;-73
2021/11/27 12:36:35;;;;;;;0.50;0.50;;;4.10;99.90;;;;;;5073078;28;20047;-73
2021/11/27 12:39:07;;;;;;;0.32;0.32;;;4.10;99.90;;;;;;5074506;28;20050;-73
2021/11/27 12:41:37;;;;;;;;;;;4.10;99.90;;;;;;5073470;28;20095;-73
2021/11/27 12:44:23;;;;;;;0.40;0.40;;;4.30;99.90;;;;;;5074522;28;20263;-73
2021/11/27 12:46:55;;;;;;;0.28;0.28;;;4.30;99.90;;;;;;5056372;28;20392;-72
2021/11/27 12:49:33;;;;;;;0.30;0.30;;;4.40;99.90;;;;;;5074330;28;20104;-73
2021/11/27 12:52:17;;;;;;;0.20;0.20;;;4.50;99.90;;;;;;5074490;28;20541;-73
2021/11/27 12:54:44;;;;;;;0.20;0.20;;;4.60;99.90;;;;;;5073965;28;20016;-73
2021/11/27 12:57:14;;;;;;;0.20;0.20;;;4.60;99.90;;;;;;5074063;28;20025;-73
2021/11/27 12:59:44;;;;;;;3.97;2.50;;;4.70;99.90;;;;;;5072822;28;20020;-73
2021/11/27 13:02:16;;;;;;;0.40;0.40;;;4.50;99.90;;;;;;5074192;28;20025;-73
2021/11/27 13:04:43;;;;;;;0.95;0.95;;;4.40;99.90;;;;;;5055775;28;20032;-73
2021/11/27 13:07:09;;;;;;;1.38;1.27;;;4.40;99.90;;;;;;5073907;28;20032;-71
2021/11/27 13:09:35;;;;;;;0.28;0.28;;;4.50;99.90;;;;;;5073847;28;20483;-73